createdAt,value
2023-05-23T00:01:08.060Z,86.06
2023-05-23T00:03:37.516Z,86.34
2023-05-23T00:06:06.855Z,86.13
2023-05-23T00:08:35.972Z,86.40
2023-05-23T00:11:02.467Z,86.36
2023-05-23T00:13:28.974Z,86.56
2023-05-23T00:15:57.615Z,86.84
2023-05-23T00:18:26.473Z,86.72
2023-05-23T00:20:53.037Z,86.78
2023-05-23T00:23:20.849Z,87.16
2023-05-23T00:25:55.180Z,86.98
2023-05-23T00:28:25.880Z,87.78
2023-05-23T00:30:54.822Z,87.83
2023-05-23T00:33:22.250Z,87.92
2023-05-23T00:35:49.250Z,87.98
2023-05-23T00:38:18.630Z,88.35
2023-05-23T00:40:48.221Z,88.25
2023-05-23T00:43:14.869Z,88.33
2023-05-23T00:45:41.565Z,88.55
2023-05-23T00:48:09.068Z,88.28
2023-05-23T00:50:36.762Z,88.58
2023-05-23T00:53:05.776Z,88.48
2023-05-23T00:55:35.233Z,88.35
2023-05-23T00:58:01.880Z,88.72
2023-05-23T01:00:28.985Z,88.50
2023-05-23T01:02:55.796Z,88.39
2023-05-23T01:05:26.918Z,88.82
2023-05-23T01:07:56.996Z,88.74
2023-05-23T01:10:26.814Z,88.85
2023-05-23T01:13:01.621Z,88.87
2023-05-23T01:15:47.976Z,88.93
2023-05-23T01:18:24.431Z,89.09
2023-05-23T01:20:56.133Z,89.17
2023-05-23T01:23:28.454Z,89.08
2023-05-23T01:25:59.454Z,89.13
2023-05-23T01:28:32.137Z,89.42
2023-05-23T01:31:02.287Z,89.50
2023-05-23T01:33:29.085Z,89.50
2023-05-23T01:36:02.173Z,89.55
2023-05-23T01:38:28.660Z,89.62
2023-05-23T01:40:58.249Z,89.77
2023-05-23T01:43:27.502Z,89.44
2023-05-23T01:45:58.732Z,89.65
2023-05-23T01:48:28.683Z,89.59
2023-05-23T01:50:59.079Z,89.51
2023-05-23T01:53:26.665Z,89.66
2023-05-23T01:55:53.972Z,89.73
2023-05-23T01:58:23.208Z,89.78
2023-05-23T02:00:49.932Z,89.75
2023-05-23T02:03:16.725Z,89.77
2023-05-23T02:05:46.058Z,89.67
2023-05-23T02:08:14.882Z,89.66
2023-05-23T02:10:48.804Z,89.78
2023-05-23T02:13:15.349Z,89.93
2023-05-23T02:15:42.115Z,89.80
2023-05-23T02:18:08.974Z,89.51
2023-05-23T02:20:35.645Z,89.75
2023-05-23T02:23:04.326Z,89.87
2023-05-23T02:25:30.866Z,90.03
2023-05-23T02:28:00.004Z,89.88
2023-05-23T02:30:31.416Z,89.77
2023-05-23T02:33:05.364Z,89.88
2023-05-23T02:35:36.653Z,89.56
2023-05-23T02:38:03.214Z,89.40
2023-05-23T02:40:29.761Z,89.18
2023-05-23T02:42:58.539Z,89.32
2023-05-23T02:45:29.663Z,88.79
2023-05-23T02:47:56.250Z,88.76
2023-05-23T02:50:25.367Z,88.44
2023-05-23T02:52:51.909Z,88.48
2023-05-23T02:55:20.763Z,88.15
2023-05-23T02:57:47.229Z,88.08
2023-05-23T03:00:15.630Z,87.98
2023-05-23T03:02:42.973Z,87.93
2023-05-23T03:05:11.906Z,88.29
2023-05-23T03:07:40.845Z,88.02
2023-05-23T03:10:08.104Z,88.02
2023-05-23T03:12:34.652Z,88.06
2023-05-23T03:15:03.479Z,87.99
2023-05-23T03:17:29.952Z,88.10
2023-05-23T03:19:59.014Z,87.81
2023-05-23T03:22:30.362Z,87.91
2023-05-23T03:24:59.124Z,87.87
2023-05-23T03:27:30.478Z,88.11
2023-05-23T03:29:56.963Z,88.09
2023-05-23T03:32:23.431Z,87.77
2023-05-23T03:34:49.899Z,87.86
2023-05-23T03:37:18.673Z,88.08
2023-05-23T03:39:47.494Z,87.82
2023-05-23T03:42:16.321Z,88.09
2023-05-23T03:44:45.422Z,88.20
2023-05-23T03:47:12.049Z,88.08
2023-05-23T03:49:40.968Z,87.71
2023-05-23T03:52:07.917Z,88.12
2023-05-23T03:54:34.397Z,88.14
2023-05-23T03:57:03.570Z,88.16
2023-05-23T03:59:32.403Z,88.35
2023-05-23T04:02:01.307Z,88.61
2023-05-23T04:04:31.334Z,88.89
2023-05-23T04:06:59.023Z,88.83
2023-05-23T04:09:27.947Z,88.88
2023-05-23T04:11:54.424Z,88.73
2023-05-23T04:14:23.176Z,88.93
2023-05-23T04:16:49.757Z,89.15
2023-05-23T04:19:18.420Z,89.43
2023-05-23T04:21:44.957Z,89.30
2023-05-23T04:24:11.514Z,89.74
2023-05-23T04:26:37.973Z,89.99
2023-05-23T04:29:06.855Z,90.16
2023-05-23T04:31:34.288Z,90.21
2023-05-23T04:34:02.446Z,90.37
2023-05-23T04:36:31.436Z,90.43
2023-05-23T04:38:58.010Z,89.87
2023-05-23T04:41:24.597Z,89.79
2023-05-23T04:43:54.705Z,88.73
2023-05-23T04:46:27.080Z,88.21
2023-05-23T04:48:55.083Z,88.36
2023-05-23T04:51:22.076Z,87.96
2023-05-23T04:53:52.603Z,88.06
2023-05-23T04:56:21.790Z,87.85
2023-05-23T04:58:50.764Z,87.85
2023-05-23T05:01:20.674Z,88.01
2023-05-23T05:03:48.775Z,87.89
2023-05-23T05:06:18.387Z,87.13
2023-05-23T05:08:45.354Z,86.53
2023-05-23T05:11:13.955Z,86.88
2023-05-23T05:13:40.550Z,87.01
2023-05-23T05:16:07.674Z,87.39
2023-05-23T05:18:37.974Z,86.38
2023-05-23T05:21:08.184Z,87.01
2023-05-23T05:23:36.225Z,86.90
2023-05-23T05:26:03.347Z,86.47
2023-05-23T05:28:32.124Z,85.88
2023-05-23T05:30:58.641Z,85.46
2023-05-23T05:33:25.209Z,84.57
2023-05-23T05:35:52.075Z,84.17
2023-05-23T05:38:18.686Z,83.19
2023-05-23T05:40:52.569Z,82.56
2023-05-23T05:43:23.988Z,82.35
2023-05-23T05:45:50.675Z,81.85
2023-05-23T05:48:19.468Z,79.99
2023-05-23T05:50:48.282Z,78.01
2023-05-23T05:53:14.861Z,77.60
2023-05-23T05:55:41.443Z,77.50
2023-05-23T05:58:07.928Z,77.79
2023-05-23T06:00:42.569Z,77.40
2023-05-23T06:03:09.372Z,76.74
2023-05-23T06:05:39.659Z,77.07
2023-05-23T06:08:08.478Z,77.36
2023-05-23T06:10:37.309Z,77.46
2023-05-23T06:13:06.335Z,78.09
2023-05-23T06:15:32.860Z,77.97
2023-05-23T06:18:01.665Z,77.85
2023-05-23T06:20:28.784Z,77.74
2023-05-23T06:22:55.370Z,77.87
2023-05-23T06:25:27.027Z,77.44
2023-05-23T06:27:56.034Z,77.13
2023-05-23T06:30:25.024Z,76.64
2023-05-23T06:32:51.562Z,76.49
2023-05-23T06:35:18.083Z,76.59
2023-05-23T06:37:46.841Z,77.65
2023-05-23T06:40:18.151Z,77.85
2023-05-23T06:42:49.447Z,77.74
2023-05-23T06:45:20.756Z,77.78
2023-05-23T06:47:49.453Z,78.38
2023-05-23T06:50:19.843Z,78.81
2023-05-23T06:52:51.131Z,79.15
2023-05-23T06:55:19.428Z,78.96
2023-05-23T06:57:46.846Z,79.45
2023-05-23T07:00:16.067Z,79.60
2023-05-23T07:02:45.853Z,79.44
2023-05-23T07:05:14.753Z,79.83
2023-05-23T07:07:43.761Z,79.71
2023-05-23T07:10:13.764Z,79.87
2023-05-23T07:12:40.391Z,80.14
2023-05-23T07:15:13.565Z,80.53
2023-05-23T07:17:42.337Z,80.72
2023-05-23T07:20:11.572Z,81.21
2023-05-23T07:22:40.409Z,82.00
2023-05-23T07:25:12.753Z,81.67
2023-05-23T07:27:44.038Z,81.28
2023-05-23T07:30:13.630Z,80.54
2023-05-23T07:32:40.181Z,80.73
2023-05-23T07:35:07.080Z,80.46
2023-05-23T07:37:33.805Z,80.21
2023-05-23T07:40:04.677Z,80.40
2023-05-23T07:42:31.226Z,79.90
2023-05-23T07:45:00.095Z,79.08
2023-05-23T07:47:29.181Z,75.44
2023-05-23T07:49:59.044Z,74.15
2023-05-23T07:52:27.788Z,72.75
2023-05-23T07:54:54.307Z,71.76
2023-05-23T07:57:25.911Z,72.23
2023-05-23T07:59:53.560Z,72.04
2023-05-23T08:02:23.144Z,72.86
2023-05-23T08:04:53.389Z,72.87
2023-05-23T08:07:19.881Z,73.33
2023-05-23T08:09:49.114Z,70.85
2023-05-23T08:12:17.924Z,69.91
2023-05-23T08:14:51.899Z,69.04
2023-05-23T08:17:19.176Z,69.52
2023-05-23T08:19:50.855Z,68.16
2023-05-23T08:22:19.999Z,65.91
2023-05-23T08:24:46.505Z,64.21
2023-05-23T08:27:15.611Z,62.99
2023-05-23T08:29:44.392Z,62.61
2023-05-23T08:32:15.929Z,61.17
2023-05-23T08:34:45.197Z,62.61
2023-05-23T08:37:11.754Z,64.26
2023-05-23T08:39:38.298Z,64.12
2023-05-23T08:42:05.187Z,63.80
2023-05-23T08:44:31.780Z,62.15
2023-05-23T08:47:07.764Z,60.12
2023-05-23T08:49:37.804Z,60.07
2023-05-23T08:52:11.479Z,59.38
2023-05-23T08:54:45.043Z,60.75
2023-05-23T08:57:14.378Z,59.64
2023-05-23T08:59:41.480Z,60.54
2023-05-23T09:02:13.191Z,60.87
2023-05-23T09:04:43.111Z,59.25
2023-05-23T09:07:15.717Z,59.32
2023-05-23T09:09:42.728Z,60.25
2023-05-23T09:12:10.249Z,59.90
2023-05-23T09:14:37.481Z,59.55
2023-05-23T09:17:04.872Z,59.94
2023-05-23T09:19:31.709Z,59.43
2023-05-23T09:22:01.030Z,58.39
2023-05-23T09:24:35.786Z,58.37
2023-05-23T09:27:03.167Z,59.39
2023-05-23T09:29:30.786Z,59.36
2023-05-23T09:32:15.912Z,61.01
2023-05-23T09:35:07.097Z,60.35
2023-05-23T09:37:39.523Z,58.35
2023-05-23T09:40:14.054Z,59.28
2023-05-23T09:42:45.332Z,57.46
2023-05-23T09:45:16.189Z,58.41
2023-05-23T09:47:52.905Z,55.05
2023-05-23T09:50:20.877Z,55.02
2023-05-23T09:52:48.098Z,56.86
2023-05-23T09:55:17.065Z,56.10
2023-05-23T09:57:44.738Z,55.45
2023-05-23T10:00:14.597Z,56.97
2023-05-23T10:03:12.444Z,58.72
2023-05-23T10:05:41.537Z,58.61
2023-05-23T10:08:12.106Z,60.55
2023-05-23T10:10:58.608Z,59.45
2023-05-23T10:13:29.060Z,59.79
2023-05-23T10:16:20.845Z,58.67
2023-05-23T10:18:54.854Z,57.77
2023-05-23T10:21:32.254Z,60.43
2023-05-23T10:24:04.346Z,57.67
2023-05-23T10:26:33.262Z,56.06
2023-05-23T10:29:02.842Z,56.89
2023-05-23T10:31:30.131Z,55.74
2023-05-23T10:34:09.234Z,54.70
2023-05-23T10:36:57.207Z,56.45
2023-05-23T10:39:38.377Z,59.04
2023-05-23T10:42:17.326Z,60.03
2023-05-23T10:44:46.220Z,60.37
2023-05-23T10:47:27.781Z,59.64
2023-05-23T10:49:57.818Z,58.51
2023-05-23T10:52:28.272Z,57.51
2023-05-23T10:54:59.728Z,58.56
2023-05-23T10:57:29.575Z,60.00
2023-05-23T11:00:01.757Z,59.22
2023-05-23T11:02:29.569Z,59.05
2023-05-23T11:05:14.649Z,60.64
2023-05-23T11:07:43.548Z,61.46
2023-05-23T11:10:11.492Z,57.76
2023-05-23T11:12:46.632Z,58.41
2023-05-23T11:15:23.965Z,59.37
2023-05-23T11:17:57.830Z,56.01
2023-05-23T11:20:28.476Z,56.53
2023-05-23T11:23:00.524Z,58.27
2023-05-23T11:25:49.201Z,56.90
2023-05-23T11:28:17.329Z,56.21
2023-05-23T11:30:44.456Z,55.31
2023-05-23T11:33:16.576Z,56.00
2023-05-23T11:35:47.908Z,57.08
2023-05-23T11:38:16.661Z,56.92
2023-05-23T11:40:46.659Z,57.26
2023-05-23T11:43:15.830Z,58.09
2023-05-23T11:45:46.982Z,57.00
2023-05-23T11:48:17.727Z,58.07
2023-05-23T11:50:54.372Z,59.26
2023-05-23T11:53:23.055Z,58.33
2023-05-23T11:55:57.609Z,59.51
2023-05-23T11:58:32.098Z,58.92
2023-05-23T12:01:11.759Z,56.98
2023-05-23T12:03:50.132Z,57.39
2023-05-23T12:06:24.847Z,56.73
2023-05-23T12:09:02.052Z,56.08
2023-05-23T12:11:34.680Z,56.51
2023-05-23T12:14:03.259Z,56.76
2023-05-23T12:16:31.915Z,54.59
2023-05-23T12:18:59.302Z,52.75
2023-05-23T12:21:27.001Z,51.35
2023-05-23T12:23:56.234Z,49.53
2023-05-23T12:26:23.150Z,51.12
2023-05-23T12:28:49.904Z,53.38
2023-05-23T12:31:17.303Z,53.92
2023-05-23T12:33:45.202Z,54.58
2023-05-23T12:36:12.660Z,55.26
2023-05-23T12:38:40.933Z,56.22
2023-05-23T12:41:11.427Z,52.78
2023-05-23T12:43:41.342Z,52.19
2023-05-23T12:46:08.275Z,54.32
2023-05-23T12:48:37.178Z,56.30
2023-05-23T12:51:06.713Z,54.28
2023-05-23T12:53:33.295Z,52.40
2023-05-23T12:56:00.514Z,52.79
2023-05-23T12:58:29.034Z,48.38
2023-05-23T13:00:56.973Z,51.79
2023-05-23T13:03:28.380Z,51.84
2023-05-23T13:05:57.499Z,54.71
2023-05-23T13:08:25.216Z,52.04
2023-05-23T13:10:54.245Z,51.47
2023-05-23T13:13:21.015Z,53.87
2023-05-23T13:15:51.651Z,54.02
2023-05-23T13:18:18.610Z,54.76
2023-05-23T13:20:47.540Z,52.29
2023-05-23T13:23:14.237Z,53.06
2023-05-23T13:25:41.329Z,51.76
2023-05-23T13:28:10.333Z,48.72
2023-05-23T13:30:36.935Z,49.77
2023-05-23T13:33:05.818Z,51.66
2023-05-23T13:35:34.829Z,53.59
2023-05-23T13:38:01.468Z,54.32
2023-05-23T13:40:28.023Z,55.46
2023-05-23T13:42:54.597Z,55.68
2023-05-23T13:45:23.166Z,55.79
2023-05-23T13:47:49.899Z,55.20
2023-05-23T13:50:21.849Z,53.99
2023-05-23T13:52:49.549Z,52.74
2023-05-23T13:55:19.010Z,51.30
2023-05-23T13:57:46.101Z,51.76
2023-05-23T14:00:16.294Z,51.40
2023-05-23T14:02:44.959Z,51.73
2023-05-23T14:05:13.923Z,50.00
2023-05-23T14:07:41.255Z,51.31
2023-05-23T14:10:09.282Z,52.42
2023-05-23T14:12:38.150Z,50.24
2023-05-23T14:15:04.878Z,50.58
2023-05-23T14:17:33.888Z,51.27
2023-05-23T14:20:02.718Z,50.45
2023-05-23T14:22:31.593Z,50.96
2023-05-23T14:25:00.859Z,51.67
2023-05-23T14:27:32.553Z,51.78
2023-05-23T14:30:01.433Z,51.82
2023-05-23T14:32:28.006Z,54.26
2023-05-23T14:34:55.363Z,51.54
2023-05-23T14:37:21.928Z,50.79
2023-05-23T14:39:50.677Z,51.98
2023-05-23T14:42:17.212Z,47.60
2023-05-23T14:44:46.986Z,50.10
2023-05-23T14:47:13.464Z,49.20
2023-05-23T14:49:42.266Z,47.61
2023-05-23T14:52:08.936Z,48.26
2023-05-23T14:54:40.934Z,48.65
2023-05-23T14:57:10.109Z,49.67
2023-05-23T14:59:39.384Z,51.44
2023-05-23T15:02:11.634Z,51.85
2023-05-23T15:04:40.533Z,51.97
2023-05-23T15:07:09.609Z,50.22
2023-05-23T15:09:38.537Z,49.46
2023-05-23T15:12:09.731Z,49.03
2023-05-23T15:14:36.317Z,50.60
2023-05-23T15:17:08.217Z,50.88
2023-05-23T15:19:38.120Z,48.06
2023-05-23T15:22:07.634Z,50.48
2023-05-23T15:24:40.776Z,49.73
2023-05-23T15:27:20.059Z,51.17
2023-05-23T15:29:47.815Z,52.57
2023-05-23T15:32:16.797Z,52.16
2023-05-23T15:34:43.911Z,52.48
2023-05-23T15:37:11.366Z,54.25
2023-05-23T15:39:37.899Z,50.48
2023-05-23T15:42:06.816Z,50.55
2023-05-23T15:44:35.863Z,51.23
2023-05-23T15:47:02.452Z,50.39
2023-05-23T15:49:31.857Z,50.43
2023-05-23T15:52:01.047Z,51.67
2023-05-23T15:54:27.526Z,51.44
2023-05-23T15:56:59.120Z,52.28
2023-05-23T15:59:28.128Z,51.69
2023-05-23T16:01:57.215Z,52.59
2023-05-23T16:04:24.125Z,51.08
2023-05-23T16:06:51.057Z,52.98
2023-05-23T16:09:17.608Z,52.80
2023-05-23T16:11:44.127Z,53.94
2023-05-23T16:14:13.129Z,53.45
2023-05-23T16:16:42.101Z,53.86
2023-05-23T16:19:08.707Z,51.80
2023-05-23T16:21:37.805Z,52.30
2023-05-23T16:24:05.076Z,52.77
2023-05-23T16:26:31.588Z,51.89
2023-05-23T16:28:58.168Z,52.36
2023-05-23T16:31:30.426Z,51.56
2023-05-23T16:33:59.330Z,53.62
2023-05-23T16:36:30.679Z,52.80
2023-05-23T16:38:59.710Z,53.55
2023-05-23T16:41:26.367Z,52.55
2023-05-23T16:43:55.671Z,50.59
2023-05-23T16:46:24.428Z,51.72
2023-05-23T16:48:53.649Z,52.27
2023-05-23T16:51:20.252Z,52.69
2023-05-23T16:53:49.364Z,53.29
2023-05-23T16:56:18.349Z,53.21
2023-05-23T16:58:44.870Z,53.42
2023-05-23T17:01:13.936Z,53.46
2023-05-23T17:03:41.384Z,52.90
2023-05-23T17:06:08.140Z,52.53
2023-05-23T17:08:39.558Z,53.86
2023-05-23T17:11:06.086Z,53.15
2023-05-23T17:13:32.840Z,52.85
2023-05-23T17:16:01.759Z,51.81
2023-05-23T17:18:30.914Z,52.65
2023-05-23T17:20:59.865Z,52.92
2023-05-23T17:23:26.946Z,52.45
2023-05-23T17:25:54.389Z,52.89
2023-05-23T17:28:23.271Z,53.61
2023-05-23T17:30:51.643Z,54.24
2023-05-23T17:33:18.208Z,54.72
2023-05-23T17:35:44.914Z,54.85
2023-05-23T17:38:11.448Z,55.49
2023-05-23T17:40:38.078Z,55.73
2023-05-23T17:43:04.652Z,56.36
2023-05-23T17:45:31.506Z,56.89
2023-05-23T17:48:03.462Z,56.25
2023-05-23T17:50:32.765Z,57.01
2023-05-23T17:53:04.028Z,54.47
2023-05-23T17:55:30.870Z,54.75
2023-05-23T17:58:04.947Z,54.72
2023-05-23T18:00:36.074Z,55.90
2023-05-23T18:03:04.241Z,55.87
2023-05-23T18:05:30.846Z,56.31
2023-05-23T18:07:59.757Z,57.61
2023-05-23T18:10:28.824Z,58.85
2023-05-23T18:12:57.810Z,59.37
2023-05-23T18:15:30.154Z,59.25
2023-05-23T18:17:59.230Z,60.24
2023-05-23T18:20:25.817Z,59.97
2023-05-23T18:22:53.798Z,58.51
2023-05-23T18:25:22.936Z,59.51
2023-05-23T18:27:49.519Z,59.16
2023-05-23T18:30:18.501Z,59.37
2023-05-23T18:32:45.153Z,58.32
2023-05-23T18:35:11.783Z,58.58
2023-05-23T18:37:38.878Z,58.69
2023-05-23T18:40:11.164Z,59.23
2023-05-23T18:42:40.318Z,59.71
2023-05-23T18:45:07.978Z,60.14
2023-05-23T18:47:37.288Z,60.59
2023-05-23T18:50:06.563Z,61.03
2023-05-23T18:52:37.284Z,61.43
2023-05-23T18:55:04.108Z,62.10
2023-05-23T18:57:33.204Z,62.34
2023-05-23T18:59:59.903Z,62.48
2023-05-23T19:02:26.978Z,63.38
2023-05-23T19:04:53.634Z,63.64
2023-05-23T19:07:22.464Z,64.05
2023-05-23T19:09:49.044Z,64.22
2023-05-23T19:12:18.972Z,64.28
2023-05-23T19:14:45.618Z,64.53
2023-05-23T19:17:12.113Z,64.44
2023-05-23T19:19:38.763Z,64.56
2023-05-23T19:22:07.856Z,65.29
2023-05-23T19:24:40.776Z,65.78
2023-05-23T19:27:07.385Z,65.53
2023-05-23T19:29:33.869Z,65.72
2023-05-23T19:32:00.576Z,66.20
2023-05-23T19:34:27.377Z,65.93
2023-05-23T19:36:56.705Z,66.49
2023-05-23T19:39:25.332Z,66.77
2023-05-23T19:41:51.839Z,67.16
2023-05-23T19:44:18.338Z,67.06
2023-05-23T19:46:49.411Z,67.65
2023-05-23T19:49:19.658Z,67.50
2023-05-23T19:51:46.341Z,67.64
2023-05-23T19:54:19.951Z,68.26
2023-05-23T19:56:49.244Z,68.50
2023-05-23T19:59:15.875Z,68.54
2023-05-23T20:01:42.503Z,68.49
2023-05-23T20:04:12.882Z,68.74
2023-05-23T20:06:42.246Z,69.24
2023-05-23T20:09:09.064Z,69.84
2023-05-23T20:11:38.092Z,69.84
2023-05-23T20:14:04.613Z,69.96
2023-05-23T20:16:31.536Z,70.59
2023-05-23T20:18:58.110Z,70.55
2023-05-23T20:21:24.675Z,70.97
2023-05-23T20:23:54.726Z,71.05
2023-05-23T20:26:26.895Z,71.60
2023-05-23T20:28:53.533Z,71.79
2023-05-23T20:31:20.198Z,71.80
2023-05-23T20:33:46.805Z,72.08
2023-05-23T20:36:13.760Z,72.29
2023-05-23T20:38:41.146Z,72.91
2023-05-23T20:41:09.996Z,72.62
2023-05-23T20:43:39.879Z,72.62
2023-05-23T20:46:11.859Z,73.35
2023-05-23T20:48:43.860Z,72.69
2023-05-23T20:51:13.554Z,72.99
2023-05-23T20:53:40.107Z,73.07
2023-05-23T20:56:10.194Z,73.70
2023-05-23T20:58:37.959Z,74.24
2023-05-23T21:01:06.935Z,73.80
2023-05-23T21:03:33.492Z,74.22
2023-05-23T21:06:00.007Z,74.11
2023-05-23T21:08:26.511Z,73.82
2023-05-23T21:10:54.704Z,74.43
2023-05-23T21:13:24.181Z,74.95
2023-05-23T21:15:51.023Z,74.93
2023-05-23T21:18:20.146Z,75.49
2023-05-23T21:20:50.790Z,75.59
2023-05-23T21:23:19.900Z,75.80
2023-05-23T21:25:46.482Z,75.66
2023-05-23T21:28:15.416Z,75.75
2023-05-23T21:30:42.442Z,75.46
2023-05-23T21:33:09.094Z,76.14
2023-05-23T21:35:37.862Z,76.81
2023-05-23T21:38:06.718Z,77.01
2023-05-23T21:40:33.203Z,77.10
2023-05-23T21:42:59.658Z,77.29
2023-05-23T21:45:26.190Z,77.41
2023-05-23T21:47:52.700Z,77.31
2023-05-23T21:50:19.233Z,77.68
2023-05-23T21:52:45.693Z,77.90
2023-05-23T21:55:12.183Z,78.19
2023-05-23T21:57:38.681Z,78.37
2023-05-23T22:00:12.979Z,78.79
2023-05-23T22:02:40.314Z,78.78
2023-05-23T22:05:13.136Z,79.06
2023-05-23T22:07:44.366Z,79.27
2023-05-23T22:10:13.225Z,79.46
2023-05-23T22:12:42.062Z,79.81
2023-05-23T22:15:09.120Z,79.89
2023-05-23T22:17:43.284Z,80.08
2023-05-23T22:20:10.470Z,79.95
2023-05-23T22:22:38.483Z,80.22
2023-05-23T22:25:09.112Z,80.40
2023-05-23T22:27:35.798Z,80.56
2023-05-23T22:30:02.477Z,80.65
2023-05-23T22:32:29.385Z,81.03
2023-05-23T22:34:58.643Z,80.92
2023-05-23T22:37:27.708Z,81.36
2023-05-23T22:39:54.174Z,81.44
2023-05-23T22:42:25.551Z,81.41
2023-05-23T22:44:52.482Z,82.25
2023-05-23T22:47:23.813Z,82.57
2023-05-23T22:49:53.985Z,82.40
2023-05-23T22:52:20.518Z,82.52
2023-05-23T22:54:49.201Z,82.46
2023-05-23T22:57:15.714Z,82.73
2023-05-23T22:59:44.795Z,82.86
2023-05-23T23:02:16.065Z,83.01
2023-05-23T23:04:44.224Z,82.91
2023-05-23T23:07:11.405Z,82.71
2023-05-23T23:09:37.952Z,82.96
2023-05-23T23:12:07.184Z,82.85
2023-05-23T23:14:35.910Z,82.78
2023-05-23T23:17:03.321Z,83.13
2023-05-23T23:19:29.861Z,83.06
2023-05-23T23:22:01.984Z,83.18
2023-05-23T23:24:28.505Z,83.01
2023-05-23T23:26:59.971Z,83.00
2023-05-23T23:29:28.813Z,83.23
2023-05-23T23:31:58.898Z,83.60
2023-05-23T23:34:26.338Z,83.83
2023-05-23T23:36:52.844Z,83.71
2023-05-23T23:39:21.676Z,83.63
2023-05-23T23:41:48.344Z,83.97
2023-05-23T23:44:17.409Z,83.93
2023-05-23T23:46:43.952Z,83.90
2023-05-23T23:49:10.621Z,84.10
2023-05-23T23:51:37.127Z,83.80
2023-05-23T23:54:03.677Z,83.59
2023-05-23T23:56:34.912Z,83.90
2023-05-23T23:59:01.531Z,84.05
